createdAt,value
2018-07-02T00:04:12.203Z,2.40
2018-07-02T00:09:06.749Z,2.52
2018-07-02T00:14:00.028Z,2.73
2018-07-02T00:18:53.345Z,2.30
2018-07-02T00:23:46.630Z,2.60
2018-07-02T00:28:39.918Z,2.50
2018-07-02T00:33:33.134Z,2.40
2018-07-02T00:38:26.468Z,2.70
2018-07-02T00:43:19.658Z,2.47
2018-07-02T00:48:12.929Z,2.37
2018-07-02T00:53:06.220Z,2.42
2018-07-02T00:57:59.470Z,2.03
2018-07-02T01:02:52.668Z,2.10
2018-07-02T01:07:45.930Z,1.83
2018-07-02T01:12:39.119Z,1.98
2018-07-02T01:17:32.461Z,1.80
2018-07-02T01:22:25.800Z,1.98
2018-07-02T01:27:19.076Z,2.07
2018-07-02T01:32:12.335Z,1.87
2018-07-02T01:37:05.621Z,1.63
2018-07-02T01:41:58.929Z,1.50
2018-07-02T01:46:52.236Z,1.42
2018-07-02T01:51:45.418Z,1.50
2018-07-02T01:56:38.678Z,1.55
2018-07-02T02:01:31.841Z,1.37
2018-07-02T02:06:25.153Z,1.40
2018-07-02T02:11:18.500Z,1.47
2018-07-02T02:16:11.733Z,1.70
2018-07-02T02:21:05.010Z,1.80
2018-07-02T02:25:58.313Z,1.50
2018-07-02T02:30:51.602Z,1.70
2018-07-02T02:35:44.957Z,1.90
2018-07-02T02:40:38.245Z,1.80
2018-07-02T02:45:31.428Z,1.57
2018-07-02T02:50:24.733Z,1.80
2018-07-02T02:55:19.231Z,1.50
2018-07-02T03:00:12.559Z,1.50
2018-07-02T03:05:06.373Z,1.55
2018-07-02T03:09:59.739Z,1.80
2018-07-02T03:14:53.050Z,1.43
2018-07-02T03:19:46.316Z,1.67
2018-07-02T03:24:39.616Z,1.20
2018-07-02T03:29:32.857Z,1.40
2018-07-02T03:34:26.263Z,1.05
2018-07-02T03:39:19.562Z,1.33
2018-07-02T03:44:12.810Z,1.27
2018-07-02T03:49:06.217Z,1.23
2018-07-02T03:53:59.502Z,1.10
2018-07-02T03:58:52.873Z,1.15
2018-07-02T04:03:46.118Z,1.37
2018-07-02T04:08:39.439Z,1.37
2018-07-02T04:13:32.691Z,1.20
2018-07-02T04:18:26.010Z,1.40
2018-07-02T04:23:19.276Z,1.30
2018-07-02T04:28:12.429Z,1.30
2018-07-02T04:33:05.908Z,1.00
2018-07-02T04:37:59.171Z,0.90
2018-07-02T04:42:52.587Z,1.10
2018-07-02T04:47:46.972Z,1.07
2018-07-02T04:52:39.029Z,1.40
2018-07-02T04:57:32.219Z,1.43
2018-07-02T05:02:25.356Z,1.10
2018-07-02T05:07:18.683Z,1.13
2018-07-02T05:12:11.953Z,0.90
2018-07-02T05:17:05.498Z,0.90
2018-07-02T05:21:58.747Z,0.90
2018-07-02T05:26:52.046Z,0.93
2018-07-02T05:31:45.324Z,0.90
2018-07-02T05:36:38.575Z,0.80
2018-07-02T05:41:31.962Z,0.60
2018-07-02T05:46:25.184Z,0.60
2018-07-02T05:51:18.449Z,0.60
2018-07-02T05:56:11.761Z,0.53
2018-07-02T06:01:05.007Z,1.03
2018-07-02T06:05:58.173Z,0.80
2018-07-02T06:10:51.348Z,0.83
2018-07-02T06:15:44.652Z,0.60
2018-07-02T06:20:37.931Z,0.50
2018-07-02T06:25:31.156Z,0.70
2018-07-02T06:30:24.430Z,0.70
2018-07-02T06:35:18.422Z,0.70
2018-07-02T06:40:11.734Z,0.73
2018-07-02T06:45:05.196Z,0.60
2018-07-02T06:49:58.348Z,0.82
2018-07-02T06:54:51.611Z,0.73
2018-07-02T06:59:44.987Z,0.70
2018-07-02T07:04:38.634Z,0.70
2018-07-02T07:09:31.890Z,0.70
2018-07-02T07:14:25.175Z,0.88
2018-07-02T07:19:18.419Z,0.80
2018-07-02T07:24:11.666Z,0.55
2018-07-02T07:29:04.962Z,0.50
2018-07-02T07:33:58.202Z,0.70
2018-07-02T07:38:51.460Z,0.60
2018-07-02T07:43:44.778Z,0.72
2018-07-02T07:48:38.025Z,0.60
2018-07-02T07:53:31.250Z,0.50
2018-07-02T07:58:24.439Z,0.80
2018-07-02T08:03:17.689Z,0.97
2018-07-02T08:08:11.029Z,0.50
2018-07-02T08:13:04.333Z,0.50
2018-07-02T08:17:57.578Z,0.67
2018-07-02T08:22:50.895Z,0.60
2018-07-02T08:27:44.185Z,0.70
2018-07-02T08:32:37.444Z,0.45
2018-07-02T08:37:30.728Z,0.60
2018-07-02T08:42:23.954Z,0.60
2018-07-02T08:47:17.219Z,0.70
2018-07-02T08:52:10.502Z,0.60
2018-07-02T08:57:03.807Z,0.63
2018-07-02T09:01:57.073Z,0.65
2018-07-02T09:06:50.377Z,0.70
2018-07-02T09:11:43.621Z,0.50
2018-07-02T09:16:36.858Z,0.67
2018-07-02T09:21:30.151Z,0.70
2018-07-02T09:26:23.392Z,0.60
2018-07-02T09:31:16.673Z,0.60
2018-07-02T09:36:09.935Z,0.70
2018-07-02T09:41:03.207Z,0.60
2018-07-02T09:45:56.401Z,0.80
2018-07-02T09:50:49.776Z,0.60
2018-07-02T09:55:43.015Z,0.60
2018-07-02T10:00:36.848Z,0.90
2018-07-02T10:05:30.132Z,0.88
2018-07-02T10:10:23.376Z,0.60
2018-07-02T10:15:16.979Z,0.70
2018-07-02T10:20:10.284Z,0.70
2018-07-02T10:25:04.209Z,0.78
2018-07-02T10:29:57.373Z,0.70
2018-07-02T10:34:50.648Z,0.73
2018-07-02T10:39:43.789Z,0.90
2018-07-02T10:44:37.060Z,0.83
2018-07-02T10:49:30.492Z,0.83
2018-07-02T10:54:23.787Z,0.70
2018-07-02T10:59:17.060Z,0.70
2018-07-02T11:04:10.972Z,0.90
2018-07-02T11:09:06.622Z,0.77
2018-07-02T11:13:59.877Z,0.93
2018-07-02T11:18:53.110Z,0.65
2018-07-02T11:23:46.366Z,0.90
2018-07-02T11:28:39.629Z,0.80
2018-07-02T11:33:32.870Z,0.60
2018-07-02T11:38:26.116Z,0.90
2018-07-02T11:43:19.356Z,0.73
2018-07-02T11:48:12.640Z,0.60
2018-07-02T11:53:05.955Z,0.67
2018-07-02T11:57:59.207Z,0.57
2018-07-02T12:02:52.355Z,0.70
2018-07-02T12:07:45.616Z,0.78
2018-07-02T12:12:38.831Z,0.93
2018-07-02T12:17:32.094Z,0.85
2018-07-02T12:22:25.257Z,0.80
2018-07-02T12:27:18.536Z,0.70
2018-07-02T12:32:11.800Z,0.77
2018-07-02T12:37:05.083Z,0.60
2018-07-02T12:41:58.338Z,0.60
2018-07-02T12:46:51.670Z,0.80
2018-07-02T12:51:44.942Z,0.70
2018-07-02T12:56:38.214Z,0.72
2018-07-02T13:01:31.468Z,0.80
2018-07-02T13:06:24.615Z,0.80
2018-07-02T13:11:17.964Z,0.70
2018-07-02T13:16:11.241Z,0.90
2018-07-02T13:21:04.581Z,0.73
2018-07-02T13:25:57.750Z,1.13
2018-07-02T13:30:51.049Z,0.80
2018-07-02T13:35:44.276Z,0.77
2018-07-02T13:40:37.521Z,0.82
2018-07-02T13:45:31.037Z,1.10
2018-07-02T13:50:24.369Z,0.77
2018-07-02T13:55:17.706Z,0.83
2018-07-02T14:00:11.110Z,0.60
2018-07-02T14:05:04.591Z,0.78
2018-07-02T14:09:58.859Z,0.77
2018-07-02T14:14:52.016Z,0.60
2018-07-02T14:19:46.380Z,1.00
2018-07-02T14:24:39.673Z,0.90
2018-07-02T14:29:33.964Z,0.75
2018-07-02T14:34:27.284Z,0.80
2018-07-02T14:39:20.512Z,0.70
2018-07-02T14:44:13.756Z,0.70
2018-07-02T14:49:07.073Z,1.20
2018-07-02T14:54:00.323Z,1.03
2018-07-02T14:58:53.582Z,1.03
2018-07-02T15:03:46.823Z,1.10
2018-07-02T15:08:39.981Z,0.95
2018-07-02T15:13:33.299Z,0.70
2018-07-02T15:18:26.558Z,0.70
2018-07-02T15:23:19.695Z,1.20
2018-07-02T15:28:13.035Z,1.90
2018-07-02T15:33:06.292Z,1.77
2018-07-02T15:37:59.554Z,0.70
2018-07-02T15:42:52.725Z,0.80
2018-07-02T15:47:45.883Z,0.80
2018-07-02T15:52:39.186Z,1.20
2018-07-02T15:57:32.432Z,0.90
2018-07-02T16:02:25.715Z,0.90
2018-07-02T16:07:19.115Z,0.70
2018-07-02T16:12:12.411Z,1.30
2018-07-02T16:17:05.883Z,0.55
2018-07-02T16:21:58.945Z,0.90
2018-07-02T16:26:52.205Z,0.90
2018-07-02T16:31:45.814Z,0.50
2018-07-02T16:36:39.057Z,1.00
2018-07-02T16:41:32.317Z,1.10
2018-07-02T16:46:25.497Z,1.00
2018-07-02T16:51:18.668Z,1.10
2018-07-02T16:56:12.001Z,1.20
2018-07-02T17:01:06.280Z,1.05
2018-07-02T17:05:59.514Z,1.13
2018-07-02T17:10:52.842Z,0.88
2018-07-02T17:15:46.153Z,0.70
2018-07-02T17:20:39.423Z,0.70
2018-07-02T17:25:32.708Z,0.90
2018-07-02T17:30:26.040Z,1.10
2018-07-02T17:35:19.300Z,1.23
2018-07-02T17:40:12.604Z,1.30
2018-07-02T17:45:06.118Z,1.00
2018-07-02T17:49:59.378Z,1.00
2018-07-02T17:54:52.702Z,1.27
2018-07-02T17:59:45.946Z,0.87
2018-07-02T18:04:39.258Z,1.00
2018-07-02T18:09:32.520Z,1.20
2018-07-02T18:14:25.846Z,1.50
2018-07-02T18:19:19.096Z,1.10
2018-07-02T18:24:12.431Z,1.77
2018-07-02T18:29:05.737Z,1.17
2018-07-02T18:33:59.123Z,0.90
2018-07-02T18:38:52.434Z,1.37
2018-07-02T18:43:45.727Z,1.07
2018-07-02T18:48:39.050Z,0.90
2018-07-02T18:53:32.499Z,1.13
2018-07-02T18:58:25.661Z,1.20
2018-07-02T19:03:18.965Z,1.10
2018-07-02T19:08:12.310Z,1.30
2018-07-02T19:13:06.541Z,1.20
2018-07-02T19:17:59.862Z,1.40
2018-07-02T19:22:53.219Z,1.30
2018-07-02T19:27:46.806Z,1.20
2018-07-02T19:32:40.108Z,0.90
2018-07-02T19:37:33.428Z,1.00
2018-07-02T19:42:26.725Z,1.10
2018-07-02T19:47:20.118Z,1.20
2018-07-02T19:52:13.322Z,1.20
2018-07-02T19:57:06.662Z,1.30
2018-07-02T20:01:59.977Z,1.30
2018-07-02T20:06:53.466Z,1.20
2018-07-02T20:11:46.568Z,1.27
2018-07-02T20:16:39.826Z,1.00
2018-07-02T20:21:33.126Z,1.30
2018-07-02T20:26:26.433Z,1.23
2018-07-02T20:31:19.688Z,1.17
2018-07-02T20:36:12.922Z,1.00
2018-07-02T20:41:06.159Z,1.27
2018-07-02T20:45:59.543Z,1.13
2018-07-02T20:50:52.818Z,1.12
2018-07-02T20:55:46.142Z,1.20
2018-07-02T21:00:39.497Z,1.47
2018-07-02T21:05:33.092Z,1.57
2018-07-02T21:10:26.624Z,1.20
2018-07-02T21:15:19.902Z,1.53
2018-07-02T21:20:13.273Z,1.67
2018-07-02T21:25:06.555Z,1.40
2018-07-02T21:29:59.831Z,1.15
2018-07-02T21:34:53.097Z,1.30
2018-07-02T21:39:46.348Z,1.10
2018-07-02T21:44:39.616Z,1.17
2018-07-02T21:49:32.942Z,1.52
2018-07-02T21:54:26.195Z,1.10
2018-07-02T21:59:19.500Z,1.12
2018-07-02T22:04:12.744Z,1.10
2018-07-02T22:09:08.632Z,0.95
2018-07-02T22:14:01.969Z,0.90
2018-07-02T22:18:55.240Z,1.07
2018-07-02T22:23:48.489Z,1.00
2018-07-02T22:28:41.802Z,1.30
2018-07-02T22:33:35.063Z,0.77
2018-07-02T22:38:28.371Z,0.93
2018-07-02T22:43:21.560Z,0.90
2018-07-02T22:48:14.705Z,0.95
2018-07-02T22:53:08.546Z,1.07
2018-07-02T22:58:01.852Z,0.80
2018-07-02T23:02:55.142Z,1.00
2018-07-02T23:07:48.447Z,0.70
2018-07-02T23:12:41.775Z,1.00
2018-07-02T23:17:34.963Z,0.90
2018-07-02T23:22:39.978Z,1.10
2018-07-02T23:27:33.277Z,1.40
2018-07-02T23:32:26.555Z,1.07
2018-07-02T23:37:19.833Z,1.13
2018-07-02T23:42:13.059Z,1.02
2018-07-02T23:47:06.373Z,1.20
2018-07-02T23:51:59.629Z,1.00
2018-07-02T23:56:52.867Z,1.00
